sensor_id;sensor_type;location;lat;lon;timestamp;temperature;humidity
3690;DHT22;1861;50.240;8.596;2022-07-21T00:00:21;23.10;99.90
3690;DHT22;1861;50.240;8.596;2022-07-21T00:02:50;23.10;99.90
3690;DHT22;1861;50.240;8.596;2022-07-21T00:05:19;23.10;99.90
3690;DHT22;1861;50.240;8.596;2022-07-21T00:07:47;23.10;99.90
3690;DHT22;1861;50.240;8.596;2022-07-21T00:10:16;23.10;99.90
3690;DHT22;1861;50.240;8.596;2022-07-21T00:12:44;23.10;99.90
3690;DHT22;1861;50.240;8.596;2022-07-21T00:15:15;23.10;99.90
3690;DHT22;1861;50.240;8.596;2022-07-21T00:17:45;23.00;99.90
3690;DHT22;1861;50.240;8.596;2022-07-21T00:20:14;23.00;99.90
3690;DHT22;1861;50.240;8.596;2022-07-21T00:22:43;23.00;99.90
3690;DHT22;1861;50.240;8.596;2022-07-21T00:25:12;23.00;99.90
3690;DHT22;1861;50.240;8.596;2022-07-21T00:27:41;23.00;99.90
3690;DHT22;1861;50.240;8.596;2022-07-21T00:30:11;23.00;99.90
3690;DHT22;1861;50.240;8.596;2022-07-21T00:32:40;23.00;99.90
3690;DHT22;1861;50.240;8.596;2022-07-21T00:35:10;23.00;99.90
3690;DHT22;1861;50.240;8.596;2022-07-21T00:37:39;23.00;99.90
3690;DHT22;1861;50.240;8.596;2022-07-21T00:40:09;23.00;99.90
3690;DHT22;1861;50.240;8.596;2022-07-21T00:42:38;23.00;99.90
3690;DHT22;1861;50.240;8.596;2022-07-21T00:45:07;23.10;99.90
3690;DHT22;1861;50.240;8.596;2022-07-21T00:47:36;23.00;99.90
3690;DHT22;1861;50.240;8.596;2022-07-21T00:50:08;23.00;99.90
3690;DHT22;1861;50.240;8.596;2022-07-21T00:52:37;23.00;99.90
3690;DHT22;1861;50.240;8.596;2022-07-21T00:55:07;23.00;99.90
3690;DHT22;1861;50.240;8.596;2022-07-21T00:57:36;22.90;99.90
3690;DHT22;1861;50.240;8.596;2022-07-21T01:00:07;22.90;99.90
3690;DHT22;1861;50.240;8.596;2022-07-21T01:02:36;22.90;99.90
3690;DHT22;1861;50.240;8.596;2022-07-21T01:05:07;22.90;99.90
3690;DHT22;1861;50.240;8.596;2022-07-21T01:07:37;22.90;99.90
3690;DHT22;1861;50.240;8.596;2022-07-21T01:10:07;23.00;99.90
3690;DHT22;1861;50.240;8.596;2022-07-21T01:12:36;22.90;99.90
3690;DHT22;1861;50.240;8.596;2022-07-21T01:15:05;22.90;99.90
3690;DHT22;1861;50.240;8.596;2022-07-21T01:17:34;22.90;99.90
3690;DHT22;1861;50.240;8.596;2022-07-21T01:20:04;22.90;99.90
3690;DHT22;1861;50.240;8.596;2022-07-21T01:22:36;22.90;99.90
3690;DHT22;1861;50.240;8.596;2022-07-21T01:25:05;22.90;99.90
3690;DHT22;1861;50.240;8.596;2022-07-21T01:27:33;22.90;99.90
3690;DHT22;1861;50.240;8.596;2022-07-21T01:30:03;22.90;99.90
3690;DHT22;1861;50.240;8.596;2022-07-21T01:32:35;22.90;99.90
3690;DHT22;1861;50.240;8.596;2022-07-21T01:35:04;22.90;99.90
3690;DHT22;1861;50.240;8.596;2022-07-21T01:37:37;22.90;99.90
3690;DHT22;1861;50.240;8.596;2022-07-21T01:40:07;22.90;99.90
3690;DHT22;1861;50.240;8.596;2022-07-21T01:42:53;22.80;99.90
3690;DHT22;1861;50.240;8.596;2022-07-21T01:45:22;22.90;99.90
3690;DHT22;1861;50.240;8.596;2022-07-21T01:47:50;22.90;99.90
3690;DHT22;1861;50.240;8.596;2022-07-21T01:50:19;22.90;99.90
3690;DHT22;1861;50.240;8.596;2022-07-21T01:52:51;22.90;99.90
3690;DHT22;1861;50.240;8.596;2022-07-21T01:55:19;22.90;99.90
3690;DHT22;1861;50.240;8.596;2022-07-21T01:57:47;22.90;99.90
3690;DHT22;1861;50.240;8.596;2022-07-21T02:00:16;22.80;99.90
3690;DHT22;1861;50.240;8.596;2022-07-21T02:02:44;22.80;99.90
3690;DHT22;1861;50.240;8.596;2022-07-21T02:05:13;22.80;99.90
3690;DHT22;1861;50.240;8.596;2022-07-21T02:07:41;22.80;99.90
3690;DHT22;1861;50.240;8.596;2022-07-21T02:10:11;22.80;99.90
3690;DHT22;1861;50.240;8.596;2022-07-21T02:12:39;22.80;99.90
3690;DHT22;1861;50.240;8.596;2022-07-21T02:15:08;22.70;99.90
3690;DHT22;1861;50.240;8.596;2022-07-21T02:17:36;22.70;99.90
3690;DHT22;1861;50.240;8.596;2022-07-21T02:20:05;22.60;99.90
3690;DHT22;1861;50.240;8.596;2022-07-21T02:22:34;22.70;99.90
3690;DHT22;1861;50.240;8.596;2022-07-21T02:25:03;22.60;99.90
3690;DHT22;1861;50.240;8.596;2022-07-21T02:27:32;22.60;99.90
3690;DHT22;1861;50.240;8.596;2022-07-21T02:30:00;22.50;99.90
3690;DHT22;1861;50.240;8.596;2022-07-21T02:32:29;22.50;99.90
3690;DHT22;1861;50.240;8.596;2022-07-21T02:34:57;22.50;99.90
3690;DHT22;1861;50.240;8.596;2022-07-21T02:37:26;22.50;99.90
3690;DHT22;1861;50.240;8.596;2022-07-21T02:39:55;22.50;99.90
3690;DHT22;1861;50.240;8.596;2022-07-21T02:42:23;22.50;99.90
3690;DHT22;1861;50.240;8.596;2022-07-21T02:44:52;22.50;99.90
3690;DHT22;1861;50.240;8.596;2022-07-21T02:47:20;22.50;99.90
3690;DHT22;1861;50.240;8.596;2022-07-21T02:49:49;22.40;99.90
3690;DHT22;1861;50.240;8.596;2022-07-21T02:52:18;22.40;99.90
3690;DHT22;1861;50.240;8.596;2022-07-21T02:54:47;22.40;99.90
3690;DHT22;1861;50.240;8.596;2022-07-21T02:57:15;22.40;99.90
3690;DHT22;1861;50.240;8.596;2022-07-21T02:59:44;22.30;99.90
3690;DHT22;1861;50.240;8.596;2022-07-21T03:02:13;22.30;99.90
3690;DHT22;1861;50.240;8.596;2022-07-21T03:04:41;22.40;99.90
3690;DHT22;1861;50.240;8.596;2022-07-21T03:07:09;22.40;99.90
3690;DHT22;1861;50.240;8.596;2022-07-21T03:09:37;22.30;99.90
3690;DHT22;1861;50.240;8.596;2022-07-21T03:12:06;22.20;99.90
3690;DHT22;1861;50.240;8.596;2022-07-21T03:14:34;22.20;99.90
3690;DHT22;1861;50.240;8.596;2022-07-21T03:17:03;22.20;99.90
3690;DHT22;1861;50.240;8.596;2022-07-21T03:19:32;22.10;99.90
3690;DHT22;1861;50.240;8.596;2022-07-21T03:22:00;22.10;99.90
3690;DHT22;1861;50.240;8.596;2022-07-21T03:24:28;22.20;99.90
3690;DHT22;1861;50.240;8.596;2022-07-21T03:26:57;22.20;99.90
3690;DHT22;1861;50.240;8.596;2022-07-21T03:29:33;22.20;99.90
3690;DHT22;1861;50.240;8.596;2022-07-21T03:32:01;22.20;99.90
3690;DHT22;1861;50.240;8.596;2022-07-21T03:34:29;22.20;99.90
3690;DHT22;1861;50.240;8.596;2022-07-21T03:36:59;22.20;99.90
3690;DHT22;1861;50.240;8.596;2022-07-21T03:39:27;22.20;99.90
3690;DHT22;1861;50.240;8.596;2022-07-21T03:41:55;22.20;99.90
3690;DHT22;1861;50.240;8.596;2022-07-21T03:44:23;22.20;99.90
3690;DHT22;1861;50.240;8.596;2022-07-21T03:46:51;22.10;99.90
3690;DHT22;1861;50.240;8.596;2022-07-21T03:49:19;22.10;99.90
3690;DHT22;1861;50.240;8.596;2022-07-21T03:51:49;22.10;99.90
3690;DHT22;1861;50.240;8.596;2022-07-21T03:54:19;22.10;99.90
3690;DHT22;1861;50.240;8.596;2022-07-21T03:56:47;22.10;99.90
3690;DHT22;1861;50.240;8.596;2022-07-21T03:59:15;22.10;99.90
3690;DHT22;1861;50.240;8.596;2022-07-21T04:01:44;22.10;99.90
3690;DHT22;1861;50.240;8.596;2022-07-21T04:04:12;22.10;99.90
3690;DHT22;1861;50.240;8.596;2022-07-21T04:06:40;22.10;99.90
3690;DHT22;1861;50.240;8.596;2022-07-21T04:09:08;22.10;99.90
3690;DHT22;1861;50.240;8.596;2022-07-21T04:11:38;22.20;99.90
3690;DHT22;1861;50.240;8.596;2022-07-21T04:14:07;22.10;99.90
3690;DHT22;1861;50.240;8.596;2022-07-21T04:16:35;22.10;99.90
3690;DHT22;1861;50.240;8.596;2022-07-21T04:19:03;22.20;99.90
3690;DHT22;1861;50.240;8.596;2022-07-21T04:21:31;22.20;99.90
3690;DHT22;1861;50.240;8.596;2022-07-21T04:24:00;22.20;99.90
3690;DHT22;1861;50.240;8.596;2022-07-21T04:26:28;22.20;99.90
3690;DHT22;1861;50.240;8.596;2022-07-21T04:28:58;22.20;99.90
3690;DHT22;1861;50.240;8.596;2022-07-21T04:31:26;22.10;99.90
3690;DHT22;1861;50.240;8.596;2022-07-21T04:33:54;22.10;99.90
3690;DHT22;1861;50.240;8.596;2022-07-21T04:36:22;22.10;99.90
3690;DHT22;1861;50.240;8.596;2022-07-21T04:38:50;22.10;99.90
3690;DHT22;1861;50.240;8.596;2022-07-21T04:41:19;22.10;99.90
3690;DHT22;1861;50.240;8.596;2022-07-21T04:43:47;22.10;99.90
3690;DHT22;1861;50.240;8.596;2022-07-21T04:46:17;22.10;99.90
3690;DHT22;1861;50.240;8.596;2022-07-21T04:48:45;22.10;99.90
3690;DHT22;1861;50.240;8.596;2022-07-21T04:51:13;22.10;99.90
3690;DHT22;1861;50.240;8.596;2022-07-21T04:53:41;22.00;99.90
3690;DHT22;1861;50.240;8.596;2022-07-21T04:56:10;22.10;99.90
3690;DHT22;1861;50.240;8.596;2022-07-21T04:58:38;22.10;99.90
3690;DHT22;1861;50.240;8.596;2022-07-21T05:01:06;22.00;99.90
3690;DHT22;1861;50.240;8.596;2022-07-21T05:03:36;22.00;99.90
3690;DHT22;1861;50.240;8.596;2022-07-21T05:06:04;22.00;99.90
3690;DHT22;1861;50.240;8.596;2022-07-21T05:08:32;22.00;99.90
3690;DHT22;1861;50.240;8.596;2022-07-21T05:11:00;22.00;99.90
3690;DHT22;1861;50.240;8.596;2022-07-21T05:13:28;22.00;99.90
3690;DHT22;1861;50.240;8.596;2022-07-21T05:15:56;22.00;99.90
3690;DHT22;1861;50.240;8.596;2022-07-21T05:18:25;22.00;99.90
3690;DHT22;1861;50.240;8.596;2022-07-21T05:20:54;22.00;99.90
3690;DHT22;1861;50.240;8.596;2022-07-21T05:23:23;22.00;99.90
3690;DHT22;1861;50.240;8.596;2022-07-21T05:25:51;22.00;99.90
3690;DHT22;1861;50.240;8.596;2022-07-21T05:28:24;22.10;99.90
3690;DHT22;1861;50.240;8.596;2022-07-21T05:30:54;22.00;99.90
3690;DHT22;1861;50.240;8.596;2022-07-21T05:33:22;22.00;99.90
3690;DHT22;1861;50.240;8.596;2022-07-21T05:35:50;22.10;99.90
3690;DHT22;1861;50.240;8.596;2022-07-21T05:38:20;22.10;99.90
3690;DHT22;1861;50.240;8.596;2022-07-21T05:40:54;22.10;99.90
3690;DHT22;1861;50.240;8.596;2022-07-21T05:43:22;22.10;99.90
3690;DHT22;1861;50.240;8.596;2022-07-21T05:45:50;22.10;99.90
3690;DHT22;1861;50.240;8.596;2022-07-21T05:48:25;22.20;99.90
3690;DHT22;1861;50.240;8.596;2022-07-21T05:50:53;22.10;99.90
3690;DHT22;1861;50.240;8.596;2022-07-21T05:53:23;22.10;99.90
3690;DHT22;1861;50.240;8.596;2022-07-21T05:55:51;22.10;99.90
3690;DHT22;1861;50.240;8.596;2022-07-21T05:58:19;22.20;99.90
3690;DHT22;1861;50.240;8.596;2022-07-21T06:00:52;22.20;99.90
3690;DHT22;1861;50.240;8.596;2022-07-21T06:03:34;22.10;99.90
3690;DHT22;1861;50.240;8.596;2022-07-21T06:06:03;22.10;99.90
3690;DHT22;1861;50.240;8.596;2022-07-21T06:08:33;22.20;99.90
3690;DHT22;1861;50.240;8.596;2022-07-21T06:11:01;22.20;99.90
3690;DHT22;1861;50.240;8.596;2022-07-21T06:13:29;22.20;99.90
3690;DHT22;1861;50.240;8.596;2022-07-21T06:15:58;22.20;99.90
3690;DHT22;1861;50.240;8.596;2022-07-21T06:18:26;22.30;99.90
3690;DHT22;1861;50.240;8.596;2022-07-21T06:20:54;22.30;99.90
3690;DHT22;1861;50.240;8.596;2022-07-21T06:23:22;22.40;99.90
3690;DHT22;1861;50.240;8.596;2022-07-21T06:25:52;22.40;99.90
3690;DHT22;1861;50.240;8.596;2022-07-21T06:28:21;22.40;99.90
3690;DHT22;1861;50.240;8.596;2022-07-21T06:30:50;22.40;99.90
3690;DHT22;1861;50.240;8.596;2022-07-21T06:33:18;22.40;99.90
3690;DHT22;1861;50.240;8.596;2022-07-21T06:35:47;22.40;99.90
3690;DHT22;1861;50.240;8.596;2022-07-21T06:38:15;22.40;99.90
3690;DHT22;1861;50.240;8.596;2022-07-21T06:40:43;22.50;99.90
3690;DHT22;1861;50.240;8.596;2022-07-21T06:43:13;22.50;99.90
3690;DHT22;1861;50.240;8.596;2022-07-21T06:45:53;22.40;99.90
3690;DHT22;1861;50.240;8.596;2022-07-21T06:48:23;22.40;99.90
3690;DHT22;1861;50.240;8.596;2022-07-21T06:50:52;22.40;99.90
3690;DHT22;1861;50.240;8.596;2022-07-21T06:53:21;22.40;99.90
3690;DHT22;1861;50.240;8.596;2022-07-21T06:55:50;22.40;99.90
3690;DHT22;1861;50.240;8.596;2022-07-21T06:58:30;22.40;99.90
3690;DHT22;1861;50.240;8.596;2022-07-21T07:01:06;22.30;99.90
3690;DHT22;1861;50.240;8.596;2022-07-21T07:03:35;22.40;99.90
3690;DHT22;1861;50.240;8.596;2022-07-21T07:06:04;22.40;99.90
3690;DHT22;1861;50.240;8.596;2022-07-21T07:08:32;22.40;99.90
3690;DHT22;1861;50.240;8.596;2022-07-21T07:11:06;22.40;99.90
3690;DHT22;1861;50.240;8.596;2022-07-21T07:13:36;22.30;99.90
3690;DHT22;1861;50.240;8.596;2022-07-21T07:16:24;22.40;99.90
3690;DHT22;1861;50.240;8.596;2022-07-21T07:18:52;22.40;99.90
3690;DHT22;1861;50.240;8.596;2022-07-21T07:21:21;22.50;99.90
3690;DHT22;1861;50.240;8.596;2022-07-21T07:23:49;22.60;99.90
3690;DHT22;1861;50.240;8.596;2022-07-21T07:26:18;22.60;99.90
3690;DHT22;1861;50.240;8.596;2022-07-21T07:28:48;22.60;99.80
3690;DHT22;1861;50.240;8.596;2022-07-21T07:31:16;22.60;99.70
3690;DHT22;1861;50.240;8.596;2022-07-21T07:33:45;22.60;99.90
3690;DHT22;1861;50.240;8.596;2022-07-21T07:36:13;22.60;99.70
3690;DHT22;1861;50.240;8.596;2022-07-21T07:38:41;22.60;99.50
3690;DHT22;1861;50.240;8.596;2022-07-21T07:41:10;22.60;99.50
3690;DHT22;1861;50.240;8.596;2022-07-21T07:43:38;22.70;99.50
3690;DHT22;1861;50.240;8.596;2022-07-21T07:46:08;22.70;99.30
3690;DHT22;1861;50.240;8.596;2022-07-21T07:48:38;22.70;99.30
3690;DHT22;1861;50.240;8.596;2022-07-21T07:51:07;22.70;99.40
3690;DHT22;1861;50.240;8.596;2022-07-21T07:53:35;22.70;99.40
3690;DHT22;1861;50.240;8.596;2022-07-21T07:56:04;22.70;99.30
3690;DHT22;1861;50.240;8.596;2022-07-21T07:58:33;22.80;99.40
3690;DHT22;1861;50.240;8.596;2022-07-21T08:01:02;22.80;99.40
3690;DHT22;1861;50.240;8.596;2022-07-21T08:03:36;22.80;99.40
3690;DHT22;1861;50.240;8.596;2022-07-21T08:06:05;22.90;99.50
3690;DHT22;1861;50.240;8.596;2022-07-21T08:08:33;22.80;99.30
3690;DHT22;1861;50.240;8.596;2022-07-21T08:11:02;22.90;99.30
3690;DHT22;1861;50.240;8.596;2022-07-21T08:13:30;22.80;99.00
3690;DHT22;1861;50.240;8.596;2022-07-21T08:15:58;22.80;99.00
3690;DHT22;1861;50.240;8.596;2022-07-21T08:18:26;22.80;99.00
3690;DHT22;1861;50.240;8.596;2022-07-21T08:20:56;22.80;98.90
3690;DHT22;1861;50.240;8.596;2022-07-21T08:23:24;22.80;99.10
3690;DHT22;1861;50.240;8.596;2022-07-21T08:25:52;22.80;99.10
3690;DHT22;1861;50.240;8.596;2022-07-21T08:28:20;22.80;99.00
3690;DHT22;1861;50.240;8.596;2022-07-21T08:30:49;22.80;98.60
3690;DHT22;1861;50.240;8.596;2022-07-21T08:33:17;22.80;98.70
3690;DHT22;1861;50.240;8.596;2022-07-21T08:35:45;22.80;98.50
3690;DHT22;1861;50.240;8.596;2022-07-21T08:38:15;22.80;98.60
3690;DHT22;1861;50.240;8.596;2022-07-21T08:40:44;22.80;98.50
3690;DHT22;1861;50.240;8.596;2022-07-21T08:43:13;22.80;98.40
3690;DHT22;1861;50.240;8.596;2022-07-21T08:45:42;22.80;98.50
3690;DHT22;1861;50.240;8.596;2022-07-21T08:48:11;22.80;98.50
3690;DHT22;1861;50.240;8.596;2022-07-21T08:50:41;22.80;98.50
3690;DHT22;1861;50.240;8.596;2022-07-21T08:53:09;22.80;98.70
3690;DHT22;1861;50.240;8.596;2022-07-21T08:55:39;22.80;98.70
3690;DHT22;1861;50.240;8.596;2022-07-21T08:58:08;22.80;98.80
3690;DHT22;1861;50.240;8.596;2022-07-21T09:00:38;22.80;98.60
3690;DHT22;1861;50.240;8.596;2022-07-21T09:03:17;22.80;98.60
3690;DHT22;1861;50.240;8.596;2022-07-21T09:06:01;22.80;98.50
3690;DHT22;1861;50.240;8.596;2022-07-21T09:08:30;22.80;98.40
3690;DHT22;1861;50.240;8.596;2022-07-21T09:11:11;22.80;98.60
3690;DHT22;1861;50.240;8.596;2022-07-21T09:13:40;22.70;98.80
3690;DHT22;1861;50.240;8.596;2022-07-21T09:16:09;22.70;99.10
3690;DHT22;1861;50.240;8.596;2022-07-21T09:18:49;22.70;99.30
3690;DHT22;1861;50.240;8.596;2022-07-21T09:21:19;22.60;99.30
3690;DHT22;1861;50.240;8.596;2022-07-21T09:23:47;22.60;99.60
3690;DHT22;1861;50.240;8.596;2022-07-21T09:26:17;22.70;99.70
3690;DHT22;1861;50.240;8.596;2022-07-21T09:28:45;22.70;99.60
3690;DHT22;1861;50.240;8.596;2022-07-21T09:31:13;22.70;99.40
3690;DHT22;1861;50.240;8.596;2022-07-21T09:33:43;22.60;99.20
3690;DHT22;1861;50.240;8.596;2022-07-21T09:36:13;22.60;99.30
3690;DHT22;1861;50.240;8.596;2022-07-21T09:38:43;22.60;99.30
3690;DHT22;1861;50.240;8.596;2022-07-21T09:41:14;22.60;99.20
3690;DHT22;1861;50.240;8.596;2022-07-21T09:43:45;22.70;99.40
3690;DHT22;1861;50.240;8.596;2022-07-21T09:46:17;22.80;99.30
3690;DHT22;1861;50.240;8.596;2022-07-21T09:48:47;22.90;99.20
3690;DHT22;1861;50.240;8.596;2022-07-21T09:51:36;22.90;99.00
3690;DHT22;1861;50.240;8.596;2022-07-21T09:54:09;23.00;99.10
3690;DHT22;1861;50.240;8.596;2022-07-21T09:56:38;23.00;99.10
3690;DHT22;1861;50.240;8.596;2022-07-21T09:59:10;23.00;99.00
3690;DHT22;1861;50.240;8.596;2022-07-21T10:01:39;23.00;98.90
3690;DHT22;1861;50.240;8.596;2022-07-21T10:04:08;23.10;98.90
3690;DHT22;1861;50.240;8.596;2022-07-21T10:06:38;23.10;98.90
3690;DHT22;1861;50.240;8.596;2022-07-21T10:09:08;23.10;98.90
3690;DHT22;1861;50.240;8.596;2022-07-21T10:11:40;23.10;98.80
3690;DHT22;1861;50.240;8.596;2022-07-21T10:14:11;23.10;98.80
3690;DHT22;1861;50.240;8.596;2022-07-21T10:16:40;23.10;98.70
3690;DHT22;1861;50.240;8.596;2022-07-21T10:19:21;23.10;98.70
3690;DHT22;1861;50.240;8.596;2022-07-21T10:21:57;23.10;98.70
3690;DHT22;1861;50.240;8.596;2022-07-21T10:24:27;23.20;98.60
3690;DHT22;1861;50.240;8.596;2022-07-21T10:27:01;23.20;98.50
3690;DHT22;1861;50.240;8.596;2022-07-21T10:29:55;23.20;98.60
3690;DHT22;1861;50.240;8.596;2022-07-21T10:32:30;23.30;98.50
3690;DHT22;1861;50.240;8.596;2022-07-21T10:35:24;23.30;98.50
3690;DHT22;1861;50.240;8.596;2022-07-21T10:37:51;23.30;98.40
3690;DHT22;1861;50.240;8.596;2022-07-21T10:40:36;23.30;98.40
3690;DHT22;1861;50.240;8.596;2022-07-21T10:43:36;23.40;98.40
3690;DHT22;1861;50.240;8.596;2022-07-21T10:46:37;23.40;98.40
3690;DHT22;1861;50.240;8.596;2022-07-21T10:49:07;23.40;98.30
3690;DHT22;1861;50.240;8.596;2022-07-21T10:51:37;23.30;98.10
3690;DHT22;1861;50.240;8.596;2022-07-21T10:54:25;23.30;98.30
3690;DHT22;1861;50.240;8.596;2022-07-21T10:57:25;23.20;97.90
3690;DHT22;1861;50.240;8.596;2022-07-21T11:00:22;23.20;97.90
3690;DHT22;1861;50.240;8.596;2022-07-21T11:02:55;23.20;98.10
3690;DHT22;1861;50.240;8.596;2022-07-21T11:05:25;23.20;97.80
3690;DHT22;1861;50.240;8.596;2022-07-21T11:08:10;23.20;97.70
3690;DHT22;1861;50.240;8.596;2022-07-21T11:10:40;23.20;97.70
3690;DHT22;1861;50.240;8.596;2022-07-21T11:13:08;23.30;97.70
3690;DHT22;1861;50.240;8.596;2022-07-21T11:15:54;23.30;97.70
3690;DHT22;1861;50.240;8.596;2022-07-21T11:18:26;23.40;97.60
3690;DHT22;1861;50.240;8.596;2022-07-21T11:21:07;23.40;97.70
3690;DHT22;1861;50.240;8.596;2022-07-21T11:23:38;23.50;97.70
3690;DHT22;1861;50.240;8.596;2022-07-21T11:26:06;23.50;97.50
3690;DHT22;1861;50.240;8.596;2022-07-21T11:28:35;23.60;97.50
3690;DHT22;1861;50.240;8.596;2022-07-21T11:31:12;23.60;97.40
3690;DHT22;1861;50.240;8.596;2022-07-21T11:33:44;23.60;97.40
3690;DHT22;1861;50.240;8.596;2022-07-21T11:36:23;23.70;97.10
3690;DHT22;1861;50.240;8.596;2022-07-21T11:39:04;23.70;97.20
3690;DHT22;1861;50.240;8.596;2022-07-21T11:41:34;23.70;97.10
3690;DHT22;1861;50.240;8.596;2022-07-21T11:44:03;23.60;97.10
3690;DHT22;1861;50.240;8.596;2022-07-21T11:46:49;23.60;97.10
3690;DHT22;1861;50.240;8.596;2022-07-21T11:49:19;23.50;97.00
3690;DHT22;1861;50.240;8.596;2022-07-21T11:51:49;23.50;96.90
3690;DHT22;1861;50.240;8.596;2022-07-21T11:54:28;23.50;97.00
3690;DHT22;1861;50.240;8.596;2022-07-21T11:56:58;23.50;96.80
3690;DHT22;1861;50.240;8.596;2022-07-21T11:59:27;23.60;96.80
3690;DHT22;1861;50.240;8.596;2022-07-21T12:02:01;23.70;96.70
3690;DHT22;1861;50.240;8.596;2022-07-21T12:04:40;23.70;96.70
3690;DHT22;1861;50.240;8.596;2022-07-21T12:07:16;23.80;96.60
3690;DHT22;1861;50.240;8.596;2022-07-21T12:09:46;23.80;96.50
3690;DHT22;1861;50.240;8.596;2022-07-21T12:12:34;23.90;96.60
3690;DHT22;1861;50.240;8.596;2022-07-21T12:15:11;23.80;96.50
3690;DHT22;1861;50.240;8.596;2022-07-21T12:17:42;23.70;96.40
3690;DHT22;1861;50.240;8.596;2022-07-21T12:20:12;23.70;96.70
3690;DHT22;1861;50.240;8.596;2022-07-21T12:22:43;23.60;96.40
3690;DHT22;1861;50.240;8.596;2022-07-21T12:25:14;23.60;96.30
3690;DHT22;1861;50.240;8.596;2022-07-21T12:27:43;23.60;96.30
3690;DHT22;1861;50.240;8.596;2022-07-21T12:30:33;23.60;96.00
3690;DHT22;1861;50.240;8.596;2022-07-21T12:33:04;23.70;96.10
3690;DHT22;1861;50.240;8.596;2022-07-21T12:35:35;23.80;96.10
3690;DHT22;1861;50.240;8.596;2022-07-21T12:38:06;23.80;96.00
3690;DHT22;1861;50.240;8.596;2022-07-21T12:40:37;23.80;95.90
3690;DHT22;1861;50.240;8.596;2022-07-21T12:43:21;23.70;95.90
3690;DHT22;1861;50.240;8.596;2022-07-21T12:45:52;23.70;95.80
3690;DHT22;1861;50.240;8.596;2022-07-21T12:48:22;23.70;95.80
3690;DHT22;1861;50.240;8.596;2022-07-21T12:51:07;23.60;95.80
3690;DHT22;1861;50.240;8.596;2022-07-21T12:53:39;23.60;95.80
3690;DHT22;1861;50.240;8.596;2022-07-21T12:56:08;23.70;95.60
3690;DHT22;1861;50.240;8.596;2022-07-21T12:58:37;23.70;95.70
3690;DHT22;1861;50.240;8.596;2022-07-21T13:01:05;23.80;95.60
3690;DHT22;1861;50.240;8.596;2022-07-21T13:03:34;23.70;95.60
3690;DHT22;1861;50.240;8.596;2022-07-21T13:06:06;23.70;95.60
3690;DHT22;1861;50.240;8.596;2022-07-21T13:08:36;23.60;95.50
3690;DHT22;1861;50.240;8.596;2022-07-21T13:11:06;23.60;95.90
3690;DHT22;1861;50.240;8.596;2022-07-21T13:13:34;23.60;95.50
3690;DHT22;1861;50.240;8.596;2022-07-21T13:16:03;23.60;95.60
3690;DHT22;1861;50.240;8.596;2022-07-21T13:18:32;23.60;95.50
3690;DHT22;1861;50.240;8.596;2022-07-21T13:21:02;23.60;95.40
3690;DHT22;1861;50.240;8.596;2022-07-21T13:23:32;23.60;95.40
3690;DHT22;1861;50.240;8.596;2022-07-21T13:26:01;23.70;95.10
3690;DHT22;1861;50.240;8.596;2022-07-21T13:28:32;23.60;94.90
3690;DHT22;1861;50.240;8.596;2022-07-21T13:31:03;23.60;95.10
3690;DHT22;1861;50.240;8.596;2022-07-21T13:33:34;23.60;95.10
3690;DHT22;1861;50.240;8.596;2022-07-21T13:36:04;23.60;94.90
3690;DHT22;1861;50.240;8.596;2022-07-21T13:38:34;23.70;94.80
3690;DHT22;1861;50.240;8.596;2022-07-21T13:41:03;23.70;94.80
3690;DHT22;1861;50.240;8.596;2022-07-21T13:43:51;23.70;94.70
3690;DHT22;1861;50.240;8.596;2022-07-21T13:46:20;23.70;95.00
3690;DHT22;1861;50.240;8.596;2022-07-21T13:48:49;23.60;94.80
3690;DHT22;1861;50.240;8.596;2022-07-21T13:51:18;23.70;94.80
3690;DHT22;1861;50.240;8.596;2022-07-21T13:53:50;23.60;94.80
3690;DHT22;1861;50.240;8.596;2022-07-21T13:56:20;23.60;94.70
3690;DHT22;1861;50.240;8.596;2022-07-21T13:58:48;23.60;94.80
3690;DHT22;1861;50.240;8.596;2022-07-21T14:01:17;23.60;94.70
3690;DHT22;1861;50.240;8.596;2022-07-21T14:03:46;23.60;94.50
3690;DHT22;1861;50.240;8.596;2022-07-21T14:06:15;23.70;94.40
3690;DHT22;1861;50.240;8.596;2022-07-21T14:08:44;23.70;94.40
3690;DHT22;1861;50.240;8.596;2022-07-21T14:11:13;23.80;94.40
3690;DHT22;1861;50.240;8.596;2022-07-21T14:13:43;23.70;94.40
3690;DHT22;1861;50.240;8.596;2022-07-21T14:16:11;23.70;94.40
3690;DHT22;1861;50.240;8.596;2022-07-21T14:18:40;23.70;94.50
3690;DHT22;1861;50.240;8.596;2022-07-21T14:21:08;23.70;94.50
3690;DHT22;1861;50.240;8.596;2022-07-21T14:23:37;23.70;94.70
3690;DHT22;1861;50.240;8.596;2022-07-21T14:26:05;23.60;94.30
3690;DHT22;1861;50.240;8.596;2022-07-21T14:28:35;23.60;94.30
3690;DHT22;1861;50.240;8.596;2022-07-21T14:31:04;23.60;94.30
3690;DHT22;1861;50.240;8.596;2022-07-21T14:33:32;23.60;94.20
3690;DHT22;1861;50.240;8.596;2022-07-21T14:36:00;23.60;94.20
3690;DHT22;1861;50.240;8.596;2022-07-21T14:38:28;23.60;94.30
3690;DHT22;1861;50.240;8.596;2022-07-21T14:40:57;23.60;94.30
3690;DHT22;1861;50.240;8.596;2022-07-21T14:43:25;23.60;94.20
3690;DHT22;1861;50.240;8.596;2022-07-21T14:45:55;23.60;94.10
3690;DHT22;1861;50.240;8.596;2022-07-21T14:48:23;23.60;94.10
3690;DHT22;1861;50.240;8.596;2022-07-21T14:50:51;23.60;93.90
3690;DHT22;1861;50.240;8.596;2022-07-21T14:53:19;23.60;93.90
3690;DHT22;1861;50.240;8.596;2022-07-21T14:55:48;23.60;93.80
3690;DHT22;1861;50.240;8.596;2022-07-21T14:58:16;23.50;93.90
3690;DHT22;1861;50.240;8.596;2022-07-21T15:00:44;23.60;93.90
3690;DHT22;1861;50.240;8.596;2022-07-21T15:03:14;23.60;93.90
3690;DHT22;1861;50.240;8.596;2022-07-21T15:05:44;23.60;93.90
3690;DHT22;1861;50.240;8.596;2022-07-21T15:08:12;23.60;93.70
3690;DHT22;1861;50.240;8.596;2022-07-21T15:10:41;23.60;93.70
3690;DHT22;1861;50.240;8.596;2022-07-21T15:13:10;23.60;93.80
3690;DHT22;1861;50.240;8.596;2022-07-21T15:15:38;23.60;93.80
3690;DHT22;1861;50.240;8.596;2022-07-21T15:18:07;23.60;93.80
3690;DHT22;1861;50.240;8.596;2022-07-21T15:20:37;23.60;93.80
3690;DHT22;1861;50.240;8.596;2022-07-21T15:23:05;23.60;93.70
3690;DHT22;1861;50.240;8.596;2022-07-21T15:25:34;23.60;93.50
3690;DHT22;1861;50.240;8.596;2022-07-21T15:28:02;23.60;93.40
3690;DHT22;1861;50.240;8.596;2022-07-21T15:30:32;23.60;93.30
3690;DHT22;1861;50.240;8.596;2022-07-21T15:33:00;23.60;93.30
3690;DHT22;1861;50.240;8.596;2022-07-21T15:35:29;23.60;93.60
3690;DHT22;1861;50.240;8.596;2022-07-21T15:37:58;23.60;93.70
3690;DHT22;1861;50.240;8.596;2022-07-21T15:40:27;23.60;93.70
3690;DHT22;1861;50.240;8.596;2022-07-21T15:42:55;23.60;93.70
3690;DHT22;1861;50.240;8.596;2022-07-21T15:45:23;23.50;93.50
3690;DHT22;1861;50.240;8.596;2022-07-21T15:47:52;23.50;93.40
3690;DHT22;1861;50.240;8.596;2022-07-21T15:50:20;23.50;93.30
3690;DHT22;1861;50.240;8.596;2022-07-21T15:52:48;23.50;93.30
3690;DHT22;1861;50.240;8.596;2022-07-21T15:55:17;23.50;93.20
3690;DHT22;1861;50.240;8.596;2022-07-21T15:57:46;23.60;93.20
3690;DHT22;1861;50.240;8.596;2022-07-21T16:00:14;23.50;93.10
3690;DHT22;1861;50.240;8.596;2022-07-21T16:02:44;23.60;93.10
3690;DHT22;1861;50.240;8.596;2022-07-21T16:05:14;23.60;93.30
3690;DHT22;1861;50.240;8.596;2022-07-21T16:07:44;23.60;93.30
3690;DHT22;1861;50.240;8.596;2022-07-21T16:10:13;23.60;93.30
3690;DHT22;1861;50.240;8.596;2022-07-21T16:12:43;23.60;93.30
3690;DHT22;1861;50.240;8.596;2022-07-21T16:15:12;23.60;93.20
3690;DHT22;1861;50.240;8.596;2022-07-21T16:17:40;23.60;93.20
3690;DHT22;1861;50.240;8.596;2022-07-21T16:20:09;23.60;93.20
3690;DHT22;1861;50.240;8.596;2022-07-21T16:22:41;23.60;93.20